sensor_id;sensor_type;location;lat;lon;timestamp;P1;durP1;ratioP1;P2;durP2;ratioP2
6864;SDS011;3471;49.678;8.388;2022-12-20T00:01:19;54.00;;;29.02;;
6864;SDS011;3471;49.678;8.388;2022-12-20T00:03:51;38.30;;;27.58;;
6864;SDS011;3471;49.678;8.388;2022-12-20T00:06:18;50.03;;;29.67;;
6864;SDS011;3471;49.678;8.388;2022-12-20T00:08:45;58.17;;;29.88;;
6864;SDS011;3471;49.678;8.388;2022-12-20T00:11:11;45.50;;;28.42;;
6864;SDS011;3471;49.678;8.388;2022-12-20T00:13:38;36.60;;;23.37;;
6864;SDS011;3471;49.678;8.388;2022-12-20T00:16:14;46.57;;;29.80;;
6864;SDS011;3471;49.678;8.388;2022-12-20T00:18:42;38.83;;;24.70;;
6864;SDS011;3471;49.678;8.388;2022-12-20T00:21:09;50.83;;;31.35;;
6864;SDS011;3471;49.678;8.388;2022-12-20T00:23:37;44.97;;;28.87;;
6864;SDS011;3471;49.678;8.388;2022-12-20T00:28:30;33.57;;;25.17;;
6864;SDS011;3471;49.678;8.388;2022-12-20T00:30:56;51.25;;;33.60;;
6864;SDS011;3471;49.678;8.388;2022-12-20T00:33:21;41.43;;;24.63;;
6864;SDS011;3471;49.678;8.388;2022-12-20T00:35:47;49.55;;;31.58;;
6864;SDS011;3471;49.678;8.388;2022-12-20T00:38:13;49.22;;;32.40;;
6864;SDS011;3471;49.678;8.388;2022-12-20T00:40:38;37.07;;;25.77;;
6864;SDS011;3471;49.678;8.388;2022-12-20T00:43:04;40.07;;;26.57;;
6864;SDS011;3471;49.678;8.388;2022-12-20T00:45:30;35.05;;;24.80;;
6864;SDS011;3471;49.678;8.388;2022-12-20T00:47:55;41.38;;;24.42;;
6864;SDS011;3471;49.678;8.388;2022-12-20T00:50:21;47.37;;;30.07;;
6864;SDS011;3471;49.678;8.388;2022-12-20T00:52:46;46.80;;;28.85;;
6864;SDS011;3471;49.678;8.388;2022-12-20T00:55:12;51.57;;;30.30;;
6864;SDS011;3471;49.678;8.388;2022-12-20T00:57:38;60.90;;;33.20;;
6864;SDS011;3471;49.678;8.388;2022-12-20T01:00:04;41.05;;;30.15;;
6864;SDS011;3471;49.678;8.388;2022-12-20T01:02:31;40.50;;;26.95;;
6864;SDS011;3471;49.678;8.388;2022-12-20T01:04:56;33.75;;;25.17;;
6864;SDS011;3471;49.678;8.388;2022-12-20T01:07:22;41.70;;;26.43;;
6864;SDS011;3471;49.678;8.388;2022-12-20T01:09:48;64.82;;;24.60;;
6864;SDS011;3471;49.678;8.388;2022-12-20T01:12:14;45.95;;;28.20;;
6864;SDS011;3471;49.678;8.388;2022-12-20T01:14:40;47.20;;;26.67;;
6864;SDS011;3471;49.678;8.388;2022-12-20T01:17:06;41.35;;;28.80;;
6864;SDS011;3471;49.678;8.388;2022-12-20T01:19:31;39.08;;;27.38;;
6864;SDS011;3471;49.678;8.388;2022-12-20T01:21:57;36.47;;;27.40;;
6864;SDS011;3471;49.678;8.388;2022-12-20T01:24:23;37.33;;;25.97;;
6864;SDS011;3471;49.678;8.388;2022-12-20T01:26:48;35.63;;;24.63;;
6864;SDS011;3471;49.678;8.388;2022-12-20T01:29:14;39.50;;;23.57;;
6864;SDS011;3471;49.678;8.388;2022-12-20T01:31:39;38.83;;;24.48;;
6864;SDS011;3471;49.678;8.388;2022-12-20T01:34:05;34.90;;;23.77;;
6864;SDS011;3471;49.678;8.388;2022-12-20T01:36:32;34.53;;;21.30;;
6864;SDS011;3471;49.678;8.388;2022-12-20T01:39:03;36.95;;;25.90;;
6864;SDS011;3471;49.678;8.388;2022-12-20T01:41:36;37.65;;;24.20;;
6864;SDS011;3471;49.678;8.388;2022-12-20T01:44:47;37.25;;;24.02;;
6864;SDS011;3471;49.678;8.388;2022-12-20T01:46:51;39.37;;;25.10;;
6864;SDS011;3471;49.678;8.388;2022-12-20T01:49:19;28.75;;;20.60;;
6864;SDS011;3471;49.678;8.388;2022-12-20T01:51:48;38.13;;;22.70;;
6864;SDS011;3471;49.678;8.388;2022-12-20T01:54:39;37.30;;;24.83;;
6864;SDS011;3471;49.678;8.388;2022-12-20T01:57:06;33.78;;;21.08;;
6864;SDS011;3471;49.678;8.388;2022-12-20T01:59:37;40.10;;;24.63;;
6864;SDS011;3471;49.678;8.388;2022-12-20T02:02:05;31.60;;;21.48;;
6864;SDS011;3471;49.678;8.388;2022-12-20T02:04:33;40.03;;;23.23;;
6864;SDS011;3471;49.678;8.388;2022-12-20T02:06:59;30.98;;;23.17;;
6864;SDS011;3471;49.678;8.388;2022-12-20T02:09:26;52.30;;;24.70;;
6864;SDS011;3471;49.678;8.388;2022-12-20T02:11:57;35.92;;;25.08;;
6864;SDS011;3471;49.678;8.388;2022-12-20T02:20:21;49.38;;;19.67;;
6864;SDS011;3471;49.678;8.388;2022-12-20T02:31:30;36.03;;;25.38;;
6864;SDS011;3471;49.678;8.388;2022-12-20T02:34:01;47.65;;;26.65;;
6864;SDS011;3471;49.678;8.388;2022-12-20T02:36:28;39.90;;;28.10;;
6864;SDS011;3471;49.678;8.388;2022-12-20T02:38:54;37.53;;;23.70;;
6864;SDS011;3471;49.678;8.388;2022-12-20T02:41:25;33.00;;;23.70;;
6864;SDS011;3471;49.678;8.388;2022-12-20T02:44:01;37.92;;;26.75;;
6864;SDS011;3471;49.678;8.388;2022-12-20T02:46:49;40.20;;;26.70;;
6864;SDS011;3471;49.678;8.388;2022-12-20T02:49:17;48.30;;;29.73;;
6864;SDS011;3471;49.678;8.388;2022-12-20T02:51:47;44.65;;;24.05;;
6864;SDS011;3471;49.678;8.388;2022-12-20T02:54:15;37.13;;;25.73;;
6864;SDS011;3471;49.678;8.388;2022-12-20T02:56:42;45.88;;;25.55;;
6864;SDS011;3471;49.678;8.388;2022-12-20T02:59:18;49.25;;;25.67;;
6864;SDS011;3471;49.678;8.388;2022-12-20T03:01:48;33.58;;;25.23;;
6864;SDS011;3471;49.678;8.388;2022-12-20T03:04:16;32.53;;;23.13;;
6864;SDS011;3471;49.678;8.388;2022-12-20T03:09:30;30.45;;;22.75;;
6864;SDS011;3471;49.678;8.388;2022-12-20T03:11:56;39.88;;;23.73;;
6864;SDS011;3471;49.678;8.388;2022-12-20T03:14:22;47.55;;;25.50;;
6864;SDS011;3471;49.678;8.388;2022-12-20T03:16:48;38.85;;;22.35;;
6864;SDS011;3471;49.678;8.388;2022-12-20T03:19:14;36.00;;;23.83;;
6864;SDS011;3471;49.678;8.388;2022-12-20T03:21:40;33.57;;;21.87;;
6864;SDS011;3471;49.678;8.388;2022-12-20T03:24:06;32.30;;;23.50;;
6864;SDS011;3471;49.678;8.388;2022-12-20T03:26:32;50.97;;;24.50;;
6864;SDS011;3471;49.678;8.388;2022-12-20T03:28:57;32.63;;;22.23;;
6864;SDS011;3471;49.678;8.388;2022-12-20T03:31:23;34.40;;;20.93;;
6864;SDS011;3471;49.678;8.388;2022-12-20T03:33:48;31.35;;;21.65;;
6864;SDS011;3471;49.678;8.388;2022-12-20T03:36:14;32.47;;;23.60;;
6864;SDS011;3471;49.678;8.388;2022-12-20T03:38:40;35.83;;;23.00;;
6864;SDS011;3471;49.678;8.388;2022-12-20T03:41:05;33.85;;;21.90;;
6864;SDS011;3471;49.678;8.388;2022-12-20T03:43:31;28.07;;;19.13;;
6864;SDS011;3471;49.678;8.388;2022-12-20T03:45:56;33.43;;;20.47;;
6864;SDS011;3471;49.678;8.388;2022-12-20T03:48:22;35.40;;;21.83;;
6864;SDS011;3471;49.678;8.388;2022-12-20T03:50:48;31.08;;;22.02;;
6864;SDS011;3471;49.678;8.388;2022-12-20T03:53:13;29.55;;;23.23;;
6864;SDS011;3471;49.678;8.388;2022-12-20T03:55:39;32.43;;;22.63;;
6864;SDS011;3471;49.678;8.388;2022-12-20T03:58:05;28.63;;;22.13;;
6864;SDS011;3471;49.678;8.388;2022-12-20T04:00:30;26.10;;;20.53;;
6864;SDS011;3471;49.678;8.388;2022-12-20T04:02:56;34.50;;;22.27;;
6864;SDS011;3471;49.678;8.388;2022-12-20T04:05:22;31.75;;;19.80;;
6864;SDS011;3471;49.678;8.388;2022-12-20T04:07:48;34.53;;;20.45;;
6864;SDS011;3471;49.678;8.388;2022-12-20T04:10:13;32.90;;;19.83;;
6864;SDS011;3471;49.678;8.388;2022-12-20T04:12:39;27.83;;;19.73;;
6864;SDS011;3471;49.678;8.388;2022-12-20T04:15:04;34.85;;;19.38;;
6864;SDS011;3471;49.678;8.388;2022-12-20T04:17:32;31.20;;;19.08;;
6864;SDS011;3471;49.678;8.388;2022-12-20T04:19:57;32.20;;;21.57;;
6864;SDS011;3471;49.678;8.388;2022-12-20T04:22:23;27.88;;;15.98;;
6864;SDS011;3471;49.678;8.388;2022-12-20T04:24:48;38.50;;;17.10;;
6864;SDS011;3471;49.678;8.388;2022-12-20T04:27:14;23.57;;;14.57;;
6864;SDS011;3471;49.678;8.388;2022-12-20T04:29:39;23.93;;;17.43;;
6864;SDS011;3471;49.678;8.388;2022-12-20T04:32:05;28.60;;;16.47;;
6864;SDS011;3471;49.678;8.388;2022-12-20T04:34:30;24.03;;;15.07;;
6864;SDS011;3471;49.678;8.388;2022-12-20T04:36:56;21.47;;;16.90;;
6864;SDS011;3471;49.678;8.388;2022-12-20T04:39:21;22.67;;;16.30;;
6864;SDS011;3471;49.678;8.388;2022-12-20T04:41:47;20.57;;;15.20;;
6864;SDS011;3471;49.678;8.388;2022-12-20T04:44:12;27.63;;;15.60;;
6864;SDS011;3471;49.678;8.388;2022-12-20T04:46:38;27.20;;;17.93;;
6864;SDS011;3471;49.678;8.388;2022-12-20T04:49:03;24.90;;;17.20;;
6864;SDS011;3471;49.678;8.388;2022-12-20T04:51:29;18.83;;;15.60;;
6864;SDS011;3471;49.678;8.388;2022-12-20T04:53:55;20.95;;;16.70;;
6864;SDS011;3471;49.678;8.388;2022-12-20T04:56:22;29.00;;;16.63;;
6864;SDS011;3471;49.678;8.388;2022-12-20T04:58:50;23.60;;;15.85;;
6864;SDS011;3471;49.678;8.388;2022-12-20T05:01:17;24.10;;;18.25;;
6864;SDS011;3471;49.678;8.388;2022-12-20T05:03:43;20.45;;;15.48;;
6864;SDS011;3471;49.678;8.388;2022-12-20T05:06:09;25.45;;;19.27;;
6864;SDS011;3471;49.678;8.388;2022-12-20T05:08:35;29.52;;;15.90;;
6864;SDS011;3471;49.678;8.388;2022-12-20T05:11:02;27.77;;;18.80;;
6864;SDS011;3471;49.678;8.388;2022-12-20T05:13:28;27.08;;;18.70;;
6864;SDS011;3471;49.678;8.388;2022-12-20T05:15:55;25.98;;;15.55;;
6864;SDS011;3471;49.678;8.388;2022-12-20T05:18:21;23.83;;;16.05;;
6864;SDS011;3471;49.678;8.388;2022-12-20T05:20:48;22.27;;;14.35;;
6864;SDS011;3471;49.678;8.388;2022-12-20T05:23:33;28.25;;;16.30;;
6864;SDS011;3471;49.678;8.388;2022-12-20T05:26:17;28.98;;;15.23;;
6864;SDS011;3471;49.678;8.388;2022-12-20T05:28:43;30.77;;;17.83;;
6864;SDS011;3471;49.678;8.388;2022-12-20T05:31:09;25.33;;;16.08;;
6864;SDS011;3471;49.678;8.388;2022-12-20T05:33:35;25.07;;;15.87;;
6864;SDS011;3471;49.678;8.388;2022-12-20T05:36:00;22.25;;;13.32;;
6864;SDS011;3471;49.678;8.388;2022-12-20T05:38:26;18.30;;;15.45;;
6864;SDS011;3471;49.678;8.388;2022-12-20T05:40:52;26.07;;;16.17;;
6864;SDS011;3471;49.678;8.388;2022-12-20T05:43:17;21.65;;;14.88;;
6864;SDS011;3471;49.678;8.388;2022-12-20T05:45:47;21.25;;;15.20;;
6864;SDS011;3471;49.678;8.388;2022-12-20T05:48:15;21.95;;;14.73;;
6864;SDS011;3471;49.678;8.388;2022-12-20T05:50:41;26.02;;;16.55;;
6864;SDS011;3471;49.678;8.388;2022-12-20T05:53:11;27.80;;;17.38;;
6864;SDS011;3471;49.678;8.388;2022-12-20T05:55:42;23.65;;;15.50;;
6864;SDS011;3471;49.678;8.388;2022-12-20T05:58:17;27.85;;;15.98;;
6864;SDS011;3471;49.678;8.388;2022-12-20T06:00:43;26.40;;;16.60;;
6864;SDS011;3471;49.678;8.388;2022-12-20T06:03:09;19.80;;;14.68;;
6864;SDS011;3471;49.678;8.388;2022-12-20T06:05:36;24.42;;;15.00;;
6864;SDS011;3471;49.678;8.388;2022-12-20T06:08:03;17.38;;;12.88;;
6864;SDS011;3471;49.678;8.388;2022-12-20T06:10:30;33.95;;;16.67;;
6864;SDS011;3471;49.678;8.388;2022-12-20T06:12:56;25.10;;;15.88;;
6864;SDS011;3471;49.678;8.388;2022-12-20T06:15:22;24.50;;;14.43;;
6864;SDS011;3471;49.678;8.388;2022-12-20T06:17:47;22.08;;;15.55;;
6864;SDS011;3471;49.678;8.388;2022-12-20T06:20:13;22.87;;;14.73;;
6864;SDS011;3471;49.678;8.388;2022-12-20T06:22:38;24.17;;;15.68;;
6864;SDS011;3471;49.678;8.388;2022-12-20T06:25:04;19.38;;;14.27;;
6864;SDS011;3471;49.678;8.388;2022-12-20T06:27:32;23.08;;;15.68;;
6864;SDS011;3471;49.678;8.388;2022-12-20T06:29:57;28.00;;;15.23;;
6864;SDS011;3471;49.678;8.388;2022-12-20T06:32:23;17.77;;;14.35;;
6864;SDS011;3471;49.678;8.388;2022-12-20T06:34:49;21.98;;;12.82;;
6864;SDS011;3471;49.678;8.388;2022-12-20T06:37:15;25.08;;;12.57;;
6864;SDS011;3471;49.678;8.388;2022-12-20T06:39:40;20.30;;;14.38;;
6864;SDS011;3471;49.678;8.388;2022-12-20T06:42:06;17.17;;;13.70;;
6864;SDS011;3471;49.678;8.388;2022-12-20T06:44:32;20.90;;;15.45;;
6864;SDS011;3471;49.678;8.388;2022-12-20T06:46:57;22.60;;;13.50;;
6864;SDS011;3471;49.678;8.388;2022-12-20T06:49:23;20.13;;;12.38;;
6864;SDS011;3471;49.678;8.388;2022-12-20T06:51:48;19.87;;;12.20;;
6864;SDS011;3471;49.678;8.388;2022-12-20T06:54:16;24.83;;;12.73;;
6864;SDS011;3471;49.678;8.388;2022-12-20T06:56:41;13.57;;;12.13;;
6864;SDS011;3471;49.678;8.388;2022-12-20T06:59:07;38.28;;;15.05;;
6864;SDS011;3471;49.678;8.388;2022-12-20T07:01:32;23.23;;;14.13;;
6864;SDS011;3471;49.678;8.388;2022-12-20T07:03:58;19.05;;;14.00;;
6864;SDS011;3471;49.678;8.388;2022-12-20T07:06:23;19.60;;;13.87;;
6864;SDS011;3471;49.678;8.388;2022-12-20T07:08:50;24.98;;;13.98;;
6864;SDS011;3471;49.678;8.388;2022-12-20T07:11:16;20.05;;;14.52;;
6864;SDS011;3471;49.678;8.388;2022-12-20T07:13:42;18.00;;;11.73;;
6864;SDS011;3471;49.678;8.388;2022-12-20T07:16:08;18.73;;;12.83;;
6864;SDS011;3471;49.678;8.388;2022-12-20T07:18:34;21.63;;;14.02;;
6864;SDS011;3471;49.678;8.388;2022-12-20T07:21:03;12.25;;;10.90;;
6864;SDS011;3471;49.678;8.388;2022-12-20T07:23:29;16.42;;;11.82;;
6864;SDS011;3471;49.678;8.388;2022-12-20T07:25:56;14.45;;;11.55;;
6864;SDS011;3471;49.678;8.388;2022-12-20T07:28:23;18.20;;;12.93;;
6864;SDS011;3471;49.678;8.388;2022-12-20T07:30:50;21.60;;;14.02;;
6864;SDS011;3471;49.678;8.388;2022-12-20T07:33:16;21.92;;;13.43;;
6864;SDS011;3471;49.678;8.388;2022-12-20T07:35:42;19.15;;;13.88;;
6864;SDS011;3471;49.678;8.388;2022-12-20T07:38:09;17.83;;;13.02;;
6864;SDS011;3471;49.678;8.388;2022-12-20T07:40:35;16.90;;;13.40;;
6864;SDS011;3471;49.678;8.388;2022-12-20T07:43:04;18.15;;;9.75;;
6864;SDS011;3471;49.678;8.388;2022-12-20T07:45:30;12.70;;;9.67;;
6864;SDS011;3471;49.678;8.388;2022-12-20T07:47:55;19.20;;;12.20;;
6864;SDS011;3471;49.678;8.388;2022-12-20T07:50:22;13.82;;;11.75;;
6864;SDS011;3471;49.678;8.388;2022-12-20T07:52:48;18.03;;;13.27;;
6864;SDS011;3471;49.678;8.388;2022-12-20T07:55:14;21.33;;;13.23;;
6864;SDS011;3471;49.678;8.388;2022-12-20T07:57:45;21.92;;;13.07;;
6864;SDS011;3471;49.678;8.388;2022-12-20T08:00:14;26.77;;;15.43;;
6864;SDS011;3471;49.678;8.388;2022-12-20T08:03:17;15.87;;;11.13;;
6864;SDS011;3471;49.678;8.388;2022-12-20T08:05:40;17.75;;;11.65;;
6864;SDS011;3471;49.678;8.388;2022-12-20T08:08:10;21.75;;;13.88;;
6864;SDS011;3471;49.678;8.388;2022-12-20T08:10:36;25.33;;;15.25;;
6864;SDS011;3471;49.678;8.388;2022-12-20T08:13:03;15.98;;;14.38;;
6864;SDS011;3471;49.678;8.388;2022-12-20T08:15:30;24.40;;;14.43;;
6864;SDS011;3471;49.678;8.388;2022-12-20T08:17:56;19.60;;;14.73;;
6864;SDS011;3471;49.678;8.388;2022-12-20T08:20:21;22.95;;;16.38;;
6864;SDS011;3471;49.678;8.388;2022-12-20T08:22:47;18.77;;;12.40;;
6864;SDS011;3471;49.678;8.388;2022-12-20T08:25:13;17.40;;;12.82;;
6864;SDS011;3471;49.678;8.388;2022-12-20T08:27:38;14.73;;;11.93;;
6864;SDS011;3471;49.678;8.388;2022-12-20T08:30:04;17.48;;;12.82;;
6864;SDS011;3471;49.678;8.388;2022-12-20T08:32:31;14.02;;;10.68;;
6864;SDS011;3471;49.678;8.388;2022-12-20T08:34:57;20.92;;;13.60;;
6864;SDS011;3471;49.678;8.388;2022-12-20T08:37:22;18.30;;;12.07;;
6864;SDS011;3471;49.678;8.388;2022-12-20T08:39:48;17.45;;;12.65;;
6864;SDS011;3471;49.678;8.388;2022-12-20T08:42:13;16.40;;;12.97;;
6864;SDS011;3471;49.678;8.388;2022-12-20T08:44:39;17.10;;;11.70;;
6864;SDS011;3471;49.678;8.388;2022-12-20T08:47:05;17.87;;;13.07;;
6864;SDS011;3471;49.678;8.388;2022-12-20T08:49:30;16.60;;;12.40;;
6864;SDS011;3471;49.678;8.388;2022-12-20T08:51:56;17.00;;;11.15;;
6864;SDS011;3471;49.678;8.388;2022-12-20T08:54:22;16.07;;;11.77;;
6864;SDS011;3471;49.678;8.388;2022-12-20T08:56:47;27.00;;;13.60;;
6864;SDS011;3471;49.678;8.388;2022-12-20T08:59:13;18.80;;;13.10;;
6864;SDS011;3471;49.678;8.388;2022-12-20T09:01:38;14.77;;;11.23;;
6864;SDS011;3471;49.678;8.388;2022-12-20T09:04:04;15.23;;;10.90;;
6864;SDS011;3471;49.678;8.388;2022-12-20T09:06:30;27.35;;;14.52;;
6864;SDS011;3471;49.678;8.388;2022-12-20T09:08:55;19.85;;;12.38;;
6864;SDS011;3471;49.678;8.388;2022-12-20T09:11:25;18.83;;;12.25;;
6864;SDS011;3471;49.678;8.388;2022-12-20T09:13:52;18.38;;;13.57;;
6864;SDS011;3471;49.678;8.388;2022-12-20T09:16:21;20.52;;;11.25;;
6864;SDS011;3471;49.678;8.388;2022-12-20T09:18:49;18.40;;;12.55;;
6864;SDS011;3471;49.678;8.388;2022-12-20T09:21:16;22.23;;;11.23;;
6864;SDS011;3471;49.678;8.388;2022-12-20T09:23:42;24.07;;;14.17;;
6864;SDS011;3471;49.678;8.388;2022-12-20T09:26:12;23.13;;;14.40;;
6864;SDS011;3471;49.678;8.388;2022-12-20T09:28:39;33.42;;;15.98;;
6864;SDS011;3471;49.678;8.388;2022-12-20T09:31:06;16.27;;;12.23;;
6864;SDS011;3471;49.678;8.388;2022-12-20T09:33:35;21.60;;;13.18;;
6864;SDS011;3471;49.678;8.388;2022-12-20T09:36:01;24.38;;;16.13;;
6864;SDS011;3471;49.678;8.388;2022-12-20T09:38:29;16.65;;;11.73;;
6864;SDS011;3471;49.678;8.388;2022-12-20T09:40:57;18.45;;;14.30;;
6864;SDS011;3471;49.678;8.388;2022-12-20T09:43:25;17.60;;;12.32;;
6864;SDS011;3471;49.678;8.388;2022-12-20T09:45:53;12.13;;;10.93;;
6864;SDS011;3471;49.678;8.388;2022-12-20T09:48:25;12.38;;;11.07;;
6864;SDS011;3471;49.678;8.388;2022-12-20T09:50:57;16.58;;;12.20;;
6864;SDS011;3471;49.678;8.388;2022-12-20T09:56:11;18.53;;;10.47;;
6864;SDS011;3471;49.678;8.388;2022-12-20T09:58:59;18.50;;;12.48;;
6864;SDS011;3471;49.678;8.388;2022-12-20T10:01:29;19.40;;;14.18;;
6864;SDS011;3471;49.678;8.388;2022-12-20T10:03:57;17.75;;;11.20;;
6864;SDS011;3471;49.678;8.388;2022-12-20T10:09:02;12.33;;;9.37;;
6864;SDS011;3471;49.678;8.388;2022-12-20T10:16:52;15.02;;;12.40;;
6864;SDS011;3471;49.678;8.388;2022-12-20T10:19:27;17.85;;;11.85;;
6864;SDS011;3471;49.678;8.388;2022-12-20T10:22:20;14.23;;;10.95;;
6864;SDS011;3471;49.678;8.388;2022-12-20T10:25:12;13.95;;;10.68;;
6864;SDS011;3471;49.678;8.388;2022-12-20T10:27:35;18.67;;;13.10;;
6864;SDS011;3471;49.678;8.388;2022-12-20T10:30:10;15.82;;;10.55;;
6864;SDS011;3471;49.678;8.388;2022-12-20T10:32:41;22.27;;;11.80;;
6864;SDS011;3471;49.678;8.388;2022-12-20T10:37:35;13.68;;;11.05;;
6864;SDS011;3471;49.678;8.388;2022-12-20T10:40:02;13.20;;;11.50;;
6864;SDS011;3471;49.678;8.388;2022-12-20T10:42:35;13.68;;;11.95;;
6864;SDS011;3471;49.678;8.388;2022-12-20T10:45:24;18.07;;;11.57;;
6864;SDS011;3471;49.678;8.388;2022-12-20T10:47:59;40.45;;;12.20;;
6864;SDS011;3471;49.678;8.388;2022-12-20T10:50:27;25.42;;;13.27;;
6864;SDS011;3471;49.678;8.388;2022-12-20T10:55:40;18.33;;;11.40;;
6864;SDS011;3471;49.678;8.388;2022-12-20T11:00:42;32.93;;;12.17;;
6864;SDS011;3471;49.678;8.388;2022-12-20T11:03:10;15.25;;;11.75;;
6864;SDS011;3471;49.678;8.388;2022-12-20T11:05:58;21.60;;;13.18;;
6864;SDS011;3471;49.678;8.388;2022-12-20T11:08:27;12.87;;;11.53;;
6864;SDS011;3471;49.678;8.388;2022-12-20T11:13:36;22.63;;;13.82;;
6864;SDS011;3471;49.678;8.388;2022-12-20T11:16:01;19.60;;;13.38;;
6864;SDS011;3471;49.678;8.388;2022-12-20T11:26:40;30.92;;;15.43;;
6864;SDS011;3471;49.678;8.388;2022-12-20T11:29:31;22.87;;;15.33;;
6864;SDS011;3471;49.678;8.388;2022-12-20T11:46:04;28.97;;;15.17;;
6864;SDS011;3471;49.678;8.388;2022-12-20T11:51:48;17.47;;;13.53;;
6864;SDS011;3471;49.678;8.388;2022-12-20T11:54:31;18.17;;;12.67;;
6864;SDS011;3471;49.678;8.388;2022-12-20T11:57:15;22.90;;;12.95;;
6864;SDS011;3471;49.678;8.388;2022-12-20T11:59:47;22.10;;;12.27;;
6864;SDS011;3471;49.678;8.388;2022-12-20T12:05:22;26.83;;;16.77;;
6864;SDS011;3471;49.678;8.388;2022-12-20T12:08:06;15.50;;;11.70;;
6864;SDS011;3471;49.678;8.388;2022-12-20T12:10:44;18.73;;;13.77;;
6864;SDS011;3471;49.678;8.388;2022-12-20T12:13:26;17.43;;;13.10;;
6864;SDS011;3471;49.678;8.388;2022-12-20T12:15:56;15.43;;;13.35;;
6864;SDS011;3471;49.678;8.388;2022-12-20T12:18:33;17.55;;;12.25;;
6864;SDS011;3471;49.678;8.388;2022-12-20T12:26:32;17.92;;;12.82;;
6864;SDS011;3471;49.678;8.388;2022-12-20T12:31:38;15.05;;;11.40;;
6864;SDS011;3471;49.678;8.388;2022-12-20T12:45:00;12.45;;;10.13;;
6864;SDS011;3471;49.678;8.388;2022-12-20T12:47:35;10.30;;;9.20;;
6864;SDS011;3471;49.678;8.388;2022-12-20T12:50:24;25.35;;;10.32;;
6864;SDS011;3471;49.678;8.388;2022-12-20T12:52:54;14.25;;;9.93;;
6864;SDS011;3471;49.678;8.388;2022-12-20T13:16:45;24.52;;;12.90;;
6864;SDS011;3471;49.678;8.388;2022-12-20T13:21:42;11.48;;;10.27;;
6864;SDS011;3471;49.678;8.388;2022-12-20T13:27:16;12.13;;;8.68;;
6864;SDS011;3471;49.678;8.388;2022-12-20T13:35:58;15.45;;;9.30;;
6864;SDS011;3471;49.678;8.388;2022-12-20T13:43:55;11.48;;;8.02;;
6864;SDS011;3471;49.678;8.388;2022-12-20T13:46:34;11.73;;;8.60;;
6864;SDS011;3471;49.678;8.388;2022-12-20T13:49:24;13.27;;;9.97;;
6864;SDS011;3471;49.678;8.388;2022-12-20T13:52:05;13.65;;;8.32;;
6864;SDS011;3471;49.678;8.388;2022-12-20T13:54:44;15.07;;;11.00;;
6864;SDS011;3471;49.678;8.388;2022-12-20T13:57:27;16.88;;;9.80;;
6864;SDS011;3471;49.678;8.388;2022-12-20T13:59:56;9.75;;;8.75;;
6864;SDS011;3471;49.678;8.388;2022-12-20T14:02:28;18.88;;;10.50;;
6864;SDS011;3471;49.678;8.388;2022-12-20T14:05:21;8.88;;;7.82;;
6864;SDS011;3471;49.678;8.388;2022-12-20T14:07:52;10.52;;;8.98;;
6864;SDS011;3471;49.678;8.388;2022-12-20T14:10:23;15.45;;;8.88;;
6864;SDS011;3471;49.678;8.388;2022-12-20T14:12:51;14.55;;;10.00;;
6864;SDS011;3471;49.678;8.388;2022-12-20T14:17:46;13.73;;;9.48;;
6864;SDS011;3471;49.678;8.388;2022-12-20T14:20:13;12.68;;;8.02;;
6864;SDS011;3471;49.678;8.388;2022-12-20T14:23:02;14.53;;;8.90;;
6864;SDS011;3471;49.678;8.388;2022-12-20T14:25:35;16.35;;;9.10;;
6864;SDS011;3471;49.678;8.388;2022-12-20T14:28:01;13.20;;;8.50;;
6864;SDS011;3471;49.678;8.388;2022-12-20T14:30:33;15.05;;;9.80;;
6864;SDS011;3471;49.678;8.388;2022-12-20T14:33:12;11.30;;;8.57;;
6864;SDS011;3471;49.678;8.388;2022-12-20T14:35:48;9.98;;;7.30;;
6864;SDS011;3471;49.678;8.388;2022-12-20T14:38:20;11.88;;;7.70;;
6864;SDS011;3471;49.678;8.388;2022-12-20T14:40:47;9.70;;;8.40;;
6864;SDS011;3471;49.678;8.388;2022-12-20T14:43:14;15.50;;;10.55;;
6864;SDS011;3471;49.678;8.388;2022-12-20T14:45:40;13.48;;;9.35;;
6864;SDS011;3471;49.678;8.388;2022-12-20T14:48:11;12.30;;;8.77;;
6864;SDS011;3471;49.678;8.388;2022-12-20T14:50:40;14.35;;;8.00;;
6864;SDS011;3471;49.678;8.388;2022-12-20T14:53:20;10.10;;;8.10;;
6864;SDS011;3471;49.678;8.388;2022-12-20T14:55:52;11.30;;;8.85;;
6864;SDS011;3471;49.678;8.388;2022-12-20T14:58:29;11.15;;;9.13;;
6864;SDS011;3471;49.678;8.388;2022-12-20T15:01:00;12.77;;;8.65;;
6864;SDS011;3471;49.678;8.388;2022-12-20T15:03:53;8.82;;;7.93;;
6864;SDS011;3471;49.678;8.388;2022-12-20T15:06:40;10.27;;;8.68;;
6864;SDS011;3471;49.678;8.388;2022-12-20T15:09:08;12.32;;;10.65;;
6864;SDS011;3471;49.678;8.388;2022-12-20T15:11:34;19.33;;;14.70;;
6864;SDS011;3471;49.678;8.388;2022-12-20T15:14:01;13.50;;;10.23;;
6864;SDS011;3471;49.678;8.388;2022-12-20T15:16:34;17.77;;;12.55;;
6864;SDS011;3471;49.678;8.388;2022-12-20T15:19:01;16.13;;;13.67;;
6864;SDS011;3471;49.678;8.388;2022-12-20T15:21:31;18.90;;;11.40;;
6864;SDS011;3471;49.678;8.388;2022-12-20T15:23:58;19.25;;;10.77;;
6864;SDS011;3471;49.678;8.388;2022-12-20T15:26:26;14.10;;;10.50;;
6864;SDS011;3471;49.678;8.388;2022-12-20T15:28:53;10.90;;;9.68;;
6864;SDS011;3471;49.678;8.388;2022-12-20T15:31:21;14.18;;;11.30;;
6864;SDS011;3471;49.678;8.388;2022-12-20T15:33:48;19.48;;;12.45;;
6864;SDS011;3471;49.678;8.388;2022-12-20T15:36:22;15.38;;;9.88;;
6864;SDS011;3471;49.678;8.388;2022-12-20T15:38:50;15.68;;;10.70;;
6864;SDS011;3471;49.678;8.388;2022-12-20T15:43:42;16.90;;;12.55;;
6864;SDS011;3471;49.678;8.388;2022-12-20T15:46:09;19.80;;;13.10;;
6864;SDS011;3471;49.678;8.388;2022-12-20T15:48:34;16.08;;;12.50;;
6864;SDS011;3471;49.678;8.388;2022-12-20T15:51:00;17.88;;;11.52;;
6864;SDS011;3471;49.678;8.388;2022-12-20T15:53:32;17.35;;;14.27;;
6864;SDS011;3471;49.678;8.388;2022-12-20T15:55:58;18.05;;;13.02;;
6864;SDS011;3471;49.678;8.388;2022-12-20T15:58:24;25.40;;;11.47;;
6864;SDS011;3471;49.678;8.388;2022-12-20T16:00:54;15.50;;;11.20;;
6864;SDS011;3471;49.678;8.388;2022-12-20T16:03:25;18.17;;;12.15;;
6864;SDS011;3471;49.678;8.388;2022-12-20T16:05:54;16.60;;;11.80;;
6864;SDS011;3471;49.678;8.388;2022-12-20T16:08:20;14.80;;;11.82;;
6864;SDS011;3471;49.678;8.388;2022-12-20T16:10:46;17.23;;;13.50;;
6864;SDS011;3471;49.678;8.388;2022-12-20T16:13:16;16.67;;;11.20;;
6864;SDS011;3471;49.678;8.388;2022-12-20T16:15:49;16.58;;;11.48;;
6864;SDS011;3471;49.678;8.388;2022-12-20T16:18:15;19.63;;;14.20;;
6864;SDS011;3471;49.678;8.388;2022-12-20T16:20:41;13.90;;;11.13;;
6864;SDS011;3471;49.678;8.388;2022-12-20T16:23:13;13.10;;;10.55;;
6864;SDS011;3471;49.678;8.388;2022-12-20T16:25:44;13.70;;;10.60;;
6864;SDS011;3471;49.678;8.388;2022-12-20T16:28:10;17.38;;;11.88;;
6864;SDS011;3471;49.678;8.388;2022-12-20T16:30:36;17.17;;;12.70;;
6864;SDS011;3471;49.678;8.388;2022-12-20T16:33:02;25.10;;;16.70;;
6864;SDS011;3471;49.678;8.388;2022-12-20T16:35:32;13.23;;;11.20;;
6864;SDS011;3471;49.678;8.388;2022-12-20T16:38:02;17.50;;;10.87;;
6864;SDS011;3471;49.678;8.388;2022-12-20T16:40:29;12.85;;;11.18;;
6864;SDS011;3471;49.678;8.388;2022-12-20T16:42:56;19.38;;;13.02;;
6864;SDS011;3471;49.678;8.388;2022-12-20T16:45:30;13.80;;;10.82;;
6864;SDS011;3471;49.678;8.388;2022-12-20T16:47:55;20.25;;;12.73;;
6864;SDS011;3471;49.678;8.388;2022-12-20T16:50:22;18.60;;;12.37;;
6864;SDS011;3471;49.678;8.388;2022-12-20T16:52:49;20.30;;;12.95;;
6864;SDS011;3471;49.678;8.388;2022-12-20T16:55:18;14.15;;;12.32;;
6864;SDS011;3471;49.678;8.388;2022-12-20T16:57:45;13.80;;;11.50;;
6864;SDS011;3471;49.678;8.388;2022-12-20T17:00:15;13.70;;;11.10;;
6864;SDS011;3471;49.678;8.388;2022-12-20T17:02:42;17.77;;;13.80;;
6864;SDS011;3471;49.678;8.388;2022-12-20T17:05:14;20.23;;;12.70;;
6864;SDS011;3471;49.678;8.388;2022-12-20T17:07:49;22.60;;;12.63;;
6864;SDS011;3471;49.678;8.388;2022-12-20T17:10:15;12.75;;;10.02;;
6864;SDS011;3471;49.678;8.388;2022-12-20T17:12:41;18.45;;;12.15;;